Woodridge, Canada
Current Conditions -  °F | °C
As of 3:54 AM on Wednesday 26 Nov 2014 (Local Time) from KROX Reporting Station
Clear Clear  
Wind Chill: -15°   Ceiling: Unl
Heat Index:   Visibility: 10mi
Dew Point: -2°   Wind: 12mph
Humidity: 85%   Direction: 350°N
Pressure: 30.24"   Gusts: NA
Location:  49.28°N, 96.15°W
Report Text: KROX 260954Z AUTO 35010KT 10SM CLR M17/M19 A3024 RMK AO2
Loading
Personal Weather Stations






























Interactive Weather Map New forecast layout! Learn more

10-Day Weather Forecast

Advertisements
Track Severe Weather on mobile